createdAt,value
2023-03-23T15:58:29.489Z,97873.78
2023-03-23T16:03:50.587Z,97864.78
2023-03-23T16:08:56.406Z,97869.41
2023-03-23T16:13:59.105Z,97877.84
2023-03-23T16:19:02.923Z,97884.41
2023-03-23T16:24:10.232Z,97889.69
2023-03-23T16:29:28.347Z,97888.16
2023-03-23T16:34:37.077Z,97897.09
2023-03-23T16:39:38.762Z,97901.28
2023-03-23T16:44:40.656Z,97903.31
2023-03-23T16:49:42.368Z,97910.66
2023-03-23T16:54:44.007Z,97912.66
2023-03-23T16:59:45.770Z,97911.44
2023-03-23T17:04:47.442Z,97901.25
2023-03-23T17:09:49.199Z,97909.88
2023-03-23T17:14:50.960Z,97911.72
2023-03-23T17:19:52.749Z,97927.50
2023-03-23T17:24:54.920Z,97929.03
2023-03-23T17:29:56.877Z,97934.53
2023-03-23T17:34:59.130Z,97939.34
2023-03-23T17:40:01.202Z,97935.22
2023-03-23T17:45:04.984Z,97946.16
2023-03-23T17:50:12.296Z,97949.41
2023-03-23T17:55:14.620Z,97955.56
2023-03-23T18:00:17.514Z,97964.00
2023-03-23T18:05:19.658Z,97957.06
2023-03-23T18:10:21.517Z,97971.00
2023-03-23T18:15:28.263Z,97969.53
2023-03-23T18:20:33.205Z,97969.66
2023-03-23T18:25:36.022Z,97974.66
2023-03-23T18:30:38.438Z,97982.97
2023-03-23T18:35:41.607Z,97977.69
2023-03-23T18:40:46.155Z,97981.19
2023-03-23T18:45:53.314Z,97985.53
2023-03-23T18:50:57.032Z,97988.59
2023-03-23T18:56:16.224Z,97988.13
2023-03-23T19:01:19.071Z,97984.41
2023-03-23T19:06:25.232Z,97988.56
2023-03-23T19:11:36.471Z,97988.72
2023-03-23T19:16:40.199Z,97988.34
2023-03-23T19:21:46.946Z,97991.03
2023-03-23T19:26:50.291Z,97999.69
2023-03-23T19:31:53.552Z,98005.06
2023-03-23T19:37:04.165Z,97996.22
2023-03-23T19:42:08.726Z,97988.78
2023-03-23T19:47:12.537Z,97987.72
2023-03-23T19:52:20.182Z,97989.47
2023-03-23T19:57:25.331Z,97998.06
2023-03-23T20:02:27.534Z,97993.75
2023-03-23T20:07:32.422Z,97998.97
2023-03-23T20:12:35.469Z,98004.78
2023-03-23T20:17:38.372Z,97998.06
2023-03-23T20:22:41.243Z,98008.28
2023-03-23T20:27:45.775Z,98012.03
2023-03-23T20:32:49.379Z,98017.47
2023-03-23T20:37:52.767Z,98008.16
2023-03-23T20:42:55.393Z,98011.34
2023-03-23T20:47:58.022Z,98018.53
2023-03-23T20:53:00.531Z,98020.31
2023-03-23T20:58:02.799Z,98026.47
2023-03-23T21:03:05.137Z,98029.59
2023-03-23T21:08:08.998Z,98027.31
2023-03-23T21:13:11.619Z,98026.22
2023-03-23T21:18:13.494Z,98040.38
2023-03-23T21:23:16.226Z,98042.84
2023-03-23T21:28:19.547Z,98034.56
2023-03-23T21:33:22.675Z,98036.41
2023-03-23T21:38:26.660Z,98038.22
2023-03-23T21:43:28.391Z,98044.50
2023-03-23T21:48:30.049Z,98035.91
2023-03-23T21:53:33.883Z,98045.78
2023-03-23T21:58:37.066Z,98038.78
2023-03-23T22:03:40.557Z,98039.25
2023-03-23T22:08:44.378Z,98030.69
2023-03-23T22:13:46.147Z,98025.94
2023-03-23T22:18:49.056Z,98031.91
2023-03-23T22:23:50.815Z,98029.72
2023-03-23T22:28:52.825Z,98019.13
2023-03-23T22:33:56.133Z,98011.66
2023-03-23T22:38:57.851Z,98006.53
2023-03-23T22:43:59.544Z,98016.94
2023-03-23T22:49:01.280Z,98024.28
2023-03-23T22:54:04.373Z,98021.88
2023-03-23T22:59:06.816Z,98025.34
2023-03-23T23:04:08.482Z,98035.34
2023-03-23T23:09:10.765Z,98031.88
2023-03-23T23:14:12.811Z,98020.38
2023-03-23T23:19:14.874Z,98030.38
2023-03-23T23:24:17.134Z,98020.75
2023-03-23T23:29:19.154Z,98025.25
2023-03-23T23:34:22.223Z,98018.59
2023-03-23T23:39:23.839Z,98024.81
2023-03-23T23:44:25.649Z,98025.44
2023-03-23T23:49:31.857Z,98040.72
2023-03-23T23:54:33.678Z,98035.09
2023-03-23T23:59:35.610Z,98029.56
